Time,TemperatureF,DewpointF,PressureIn,WindDirection,WindDirectionDegrees,WindSpeedMPH,WindSpeedGustMPH,Humidity,HourlyPrecipIn,Conditions,Clouds,dailyrainin,SolarRadiationWatts/m^2,SoftwareType,DateUTC
2013-04-22 00:01:00,35.0,35.0,-100.00,NE,36,1.0,1.0,100,0.00,,,0.03,0.000000,,2013-04-22 07:01:00,
2013-04-22 00:32:00,33.0,33.0,-100.00,ENE,69,1.0,3.0,100,0.00,,,0.03,0.000000,,2013-04-22 07:32:00,
2013-04-22 00:42:00,33.0,33.0,-100.00,ENE,69,1.0,3.0,100,0.00,,,0.03,0.000000,,2013-04-22 07:42:00,
2013-04-22 00:52:00,33.0,33.0,-100.00,ENE,69,1.0,3.0,100,0.00,,,0.03,0.000000,,2013-04-22 07:52:00,
2013-04-22 01:01:00,33.0,33.0,-100.00,ENE,69,1.0,3.0,100,0.00,,,0.03,0.000000,,2013-04-22 08:01:00,
2013-04-22 01:32:00,34.0,34.0,-100.00,North,356,0.0,5.0,100,0.01,,,0.04,0.000000,,2013-04-22 08:32:00,
2013-04-22 01:42:00,34.0,34.0,-100.00,North,356,0.0,5.0,100,0.01,,,0.04,0.000000,,2013-04-22 08:42:00,
2013-04-22 01:52:00,34.0,34.0,-100.00,North,356,0.0,5.0,100,0.01,,,0.04,0.000000,,2013-04-22 08:52:00,
2013-04-22 02:01:00,34.0,34.0,-100.00,North,356,0.0,5.0,100,0.01,,,0.04,0.000000,,2013-04-22 09:01:00,
2013-04-22 02:33:00,32.0,32.0,-100.00,NE,55,1.0,2.0,100,0.00,,,0.04,0.000000,,2013-04-22 09:33:00,
2013-04-22 02:42:00,32.0,32.0,-100.00,NE,55,1.0,2.0,100,0.00,,,0.04,0.000000,,2013-04-22 09:42:00,
2013-04-22 02:52:00,32.0,32.0,-100.00,NE,55,1.0,2.0,100,0.00,,,0.04,0.000000,,2013-04-22 09:52:00,
2013-04-22 03:03:00,32.0,32.0,-100.00,NE,55,1.0,2.0,100,0.00,,,0.04,0.000000,,2013-04-22 10:03:00,
2013-04-22 03:32:00,31.0,31.0,-100.00,WNW,288,1.0,4.0,100,0.00,,,0.04,0.000000,,2013-04-22 10:32:00,
2013-04-22 03:42:00,31.0,31.0,-100.00,WNW,288,1.0,4.0,100,0.00,,,0.04,0.000000,,2013-04-22 10:42:00,
2013-04-22 03:52:00,31.0,31.0,-100.00,WNW,288,1.0,4.0,100,0.00,,,0.04,0.000000,,2013-04-22 10:52:00,
2013-04-22 04:02:00,31.0,31.0,-100.00,WNW,288,1.0,4.0,100,0.00,,,0.04,0.000000,,2013-04-22 11:02:00,
2013-04-22 05:32:00,29.0,29.0,-100.00,NNE,30,1.0,3.0,100,-99.99,,,0.04,0.000000,,2013-04-22 12:32:00,
2013-04-22 05:42:00,29.0,29.0,-100.00,NNE,30,1.0,3.0,100,-99.99,,,0.04,0.000000,,2013-04-22 12:42:00,
2013-04-22 05:52:00,29.0,29.0,-100.00,NNE,30,1.0,3.0,100,-99.99,,,0.04,0.000000,,2013-04-22 12:52:00,
2013-04-22 06:01:00,29.0,29.0,-100.00,NNE,30,1.0,3.0,100,-99.99,,,0.04,0.000000,,2013-04-22 13:01:00,
2013-04-22 06:32:00,28.0,28.0,-100.00,North,4,1.0,3.0,100,0.00,,,0.04,0.000000,,2013-04-22 13:32:00,
2013-04-22 06:42:00,28.0,28.0,-100.00,North,4,1.0,3.0,100,0.00,,,0.04,0.000000,,2013-04-22 13:42:00,
2013-04-22 06:52:00,28.0,28.0,-100.00,North,4,1.0,3.0,100,0.00,,,0.04,0.000000,,2013-04-22 13:52:00,
2013-04-22 07:01:00,28.0,28.0,-100.00,North,4,1.0,3.0,100,0.00,,,0.04,0.000000,,2013-04-22 14:01:00,
2013-04-22 07:33:00,29.0,29.0,-100.00,NW,320,1.0,4.0,100,0.00,,,0.04,17.000000,,2013-04-22 14:33:00,
2013-04-22 07:42:00,29.0,29.0,-100.00,NW,320,1.0,4.0,100,0.00,,,0.04,17.000000,,2013-04-22 14:42:00,
2013-04-22 07:52:00,29.0,29.0,-100.00,NW,320,1.0,4.0,100,0.00,,,0.04,17.000000,,2013-04-22 14:52:00,
2013-04-22 08:01:00,29.0,29.0,-100.00,NW,320,1.0,4.0,100,0.00,,,0.04,17.000000,,2013-04-22 15:01:00,
2013-04-22 08:33:00,32.0,32.0,-100.00,NNE,13,1.0,7.0,100,0.00,,,0.04,44.000000,,2013-04-22 15:33:00,
2013-04-22 08:43:00,32.0,32.0,-100.00,NNE,13,1.0,7.0,100,0.00,,,0.04,44.000000,,2013-04-22 15:43:00,
2013-04-22 08:53:00,32.0,32.0,-100.00,NNE,13,1.0,7.0,100,0.00,,,0.04,44.000000,,2013-04-22 15:53:00,
2013-04-22 09:02:00,32.0,32.0,-100.00,NNE,13,1.0,7.0,100,0.00,,,0.04,44.000000,,2013-04-22 16:02:00,
2013-04-22 09:33:00,34.0,34.0,-100.00,ENE,72,2.0,10.0,99,0.00,,,-99.99,97.000000,,2013-04-22 16:33:00,
2013-04-22 09:42:00,34.0,34.0,-100.00,ENE,72,2.0,10.0,99,0.00,,,-99.99,97.000000,,2013-04-22 16:42:00,
2013-04-22 09:52:00,34.0,34.0,-100.00,ENE,72,2.0,10.0,99,0.00,,,-99.99,97.000000,,2013-04-22 16:52:00,
2013-04-22 10:02:00,34.0,34.0,-100.00,ENE,72,2.0,10.0,99,0.00,,,-99.99,97.000000,,2013-04-22 17:02:00,
2013-04-22 10:32:00,44.0,31.0,-100.00,NW,308,2.0,8.0,60,0.00,,,0.04,450.000000,,2013-04-22 17:32:00,
2013-04-22 10:43:00,44.0,31.0,-100.00,NW,308,2.0,8.0,60,0.00,,,0.04,450.000000,,2013-04-22 17:43:00,
2013-04-22 10:52:00,44.0,31.0,-100.00,NW,308,2.0,8.0,60,0.00,,,0.04,450.000000,,2013-04-22 17:52:00,
2013-04-22 11:01:00,44.0,31.0,-100.00,NW,308,2.0,8.0,60,0.00,,,0.04,450.000000,,2013-04-22 18:01:00,
2013-04-22 11:32:00,51.0,21.0,-100.00,East,81,3.0,11.0,31,0.00,,,0.03,958.000000,,2013-04-22 18:32:00,
2013-04-22 11:42:00,51.0,21.0,-100.00,East,81,3.0,11.0,31,0.00,,,0.03,958.000000,,2013-04-22 18:42:00,
2013-04-22 11:52:00,51.0,21.0,-100.00,East,81,3.0,11.0,31,0.00,,,0.03,958.000000,,2013-04-22 18:52:00,
2013-04-22 12:01:00,51.0,21.0,-100.00,East,81,3.0,11.0,31,0.00,,,0.03,958.000000,,2013-04-22 19:01:00,
2013-04-22 12:32:00,54.0,22.0,-100.00,North,354,3.0,13.0,28,0.00,,,0.03,1117.000000,,2013-04-22 19:32:00,
2013-04-22 12:42:00,54.0,22.0,-100.00,North,354,3.0,13.0,28,0.00,,,0.03,1117.000000,,2013-04-22 19:42:00,
2013-04-22 12:52:00,54.0,22.0,-100.00,North,354,3.0,13.0,28,0.00,,,0.03,1117.000000,,2013-04-22 19:52:00,
2013-04-22 13:02:00,54.0,22.0,-100.00,North,354,3.0,13.0,28,0.00,,,0.03,1117.000000,,2013-04-22 20:02:00,
2013-04-22 13:32:00,56.0,22.0,-100.00,ESE,106,3.0,10.0,26,0.00,,,0.03,1190.000000,,2013-04-22 20:32:00,
2013-04-22 13:42:00,56.0,22.0,-100.00,ESE,106,3.0,10.0,26,0.00,,,0.03,1190.000000,,2013-04-22 20:42:00,
2013-04-22 13:52:00,56.0,22.0,-100.00,ESE,106,3.0,10.0,26,0.00,,,0.03,1190.000000,,2013-04-22 20:52:00,
2013-04-22 14:01:00,56.0,22.0,-100.00,ESE,106,3.0,10.0,26,0.00,,,0.03,1190.000000,,2013-04-22 21:01:00,
2013-04-22 14:33:00,59.0,21.0,-100.00,NW,326,3.0,10.0,23,0.00,,,0.03,1187.000000,,2013-04-22 21:33:00,
2013-04-22 14:43:00,59.0,21.0,-100.00,NW,326,3.0,10.0,23,0.00,,,0.03,1187.000000,,2013-04-22 21:43:00,
2013-04-22 14:53:00,59.0,21.0,-100.00,NW,326,3.0,10.0,23,0.00,,,0.03,1187.000000,,2013-04-22 21:53:00,
2013-04-22 15:02:00,59.0,21.0,-100.00,NW,326,3.0,10.0,23,0.00,,,0.03,1187.000000,,2013-04-22 22:02:00,
2013-04-22 15:33:00,60.0,19.0,-100.00,WNW,290,2.0,8.0,20,0.00,,,0.03,1111.000000,,2013-04-22 22:33:00,
2013-04-22 15:42:00,60.0,19.0,-100.00,WNW,290,2.0,8.0,20,0.00,,,0.03,1111.000000,,2013-04-22 22:42:00,
2013-04-22 15:52:00,60.0,19.0,-100.00,WNW,290,2.0,8.0,20,0.00,,,0.03,1111.000000,,2013-04-22 22:52:00,
2013-04-22 16:02:00,60.0,19.0,-100.00,WNW,290,2.0,8.0,20,0.00,,,0.03,1111.000000,,2013-04-22 23:02:00,
2013-04-22 16:33:00,61.0,21.0,-100.00,North,359,2.0,10.0,21,-99.99,,,0.03,967.000000,,2013-04-22 23:33:00,
2013-04-22 16:42:00,61.0,21.0,-100.00,North,359,2.0,10.0,21,-99.99,,,0.03,967.000000,,2013-04-22 23:42:00,
2013-04-22 16:52:00,61.0,21.0,-100.00,North,359,2.0,10.0,21,-99.99,,,0.03,967.000000,,2013-04-22 23:52:00,
2013-04-22 17:01:00,61.0,21.0,-100.00,North,359,2.0,10.0,21,-99.99,,,0.03,967.000000,,2013-04-23 00:01:00,
2013-04-22 18:32:00,59.0,24.0,-100.00,SSW,199,1.0,6.0,26,-99.99,,,0.03,523.000000,,2013-04-23 01:32:00,
2013-04-22 18:42:00,59.0,24.0,-100.00,SSW,199,1.0,6.0,26,-99.99,,,0.03,523.000000,,2013-04-23 01:42:00,
2013-04-22 18:52:00,59.0,24.0,-100.00,SSW,199,1.0,6.0,26,-99.99,,,0.03,523.000000,,2013-04-23 01:52:00,
2013-04-22 19:01:00,59.0,24.0,-100.00,SSW,199,1.0,6.0,26,-99.99,,,0.03,523.000000,,2013-04-23 02:01:00,
2013-04-22 19:33:00,49.0,36.0,-100.00,NW,309,1.0,6.0,60,-99.99,,,0.03,134.000000,,2013-04-23 02:33:00,
2013-04-22 20:33:00,39.0,34.0,-100.00,East,85,1.0,4.0,83,0.00,,,0.03,17.000000,,2013-04-23 03:33:00,
2013-04-22 21:03:00,39.0,34.0,-100.00,East,85,1.0,4.0,83,0.00,,,0.03,17.000000,,2013-04-23 04:03:00,
2013-04-22 21:33:00,33.0,31.0,-100.00,East,86,1.0,5.0,93,0.00,,,0.01,0.000000,,2013-04-23 04:33:00,
2013-04-22 22:32:00,32.0,32.0,-100.00,SSE,155,1.0,3.0,98,-99.99,,,0.01,0.000000,,2013-04-23 05:32:00,
2013-04-22 22:42:00,32.0,32.0,-100.00,SSE,155,1.0,3.0,98,-99.99,,,0.01,0.000000,,2013-04-23 05:42:00,
2013-04-22 22:52:00,32.0,32.0,-100.00,SSE,155,1.0,3.0,98,-99.99,,,0.01,0.000000,,2013-04-23 05:52:00,
2013-04-22 23:01:00,32.0,32.0,-100.00,SSE,155,1.0,3.0,98,-99.99,,,0.01,0.000000,,2013-04-23 06:01:00,
2013-04-22 23:33:00,31.0,31.0,-100.00,ENE,59,1.0,4.0,100,0.00,,,0.01,0.000000,,2013-04-23 06:33:00,
2013-04-22 23:42:00,31.0,31.0,-100.00,ENE,59,1.0,4.0,100,0.00,,,0.01,0.000000,,2013-04-23 06:42:00,
2013-04-22 23:52:00,31.0,31.0,-100.00,ENE,59,1.0,4.0,100,0.00,,,0.01,0.000000,,2013-04-23 06:52:00,